sensor_id;sensor_type;location;lat;lon;timestamp;P1;durP1;ratioP1;P2;durP2;ratioP2
26163;SDS011;13914;48.178;11.716;2022-09-21T00:01:05;16.00;;;1.73;;
26163;SDS011;13914;48.178;11.716;2022-09-21T00:03:35;6.18;;;1.40;;
26163;SDS011;13914;48.178;11.716;2022-09-21T00:06:05;4.32;;;1.48;;
26163;SDS011;13914;48.178;11.716;2022-09-21T00:08:52;15.50;;;1.42;;
26163;SDS011;13914;48.178;11.716;2022-09-21T00:11:23;4.85;;;1.48;;
26163;SDS011;13914;48.178;11.716;2022-09-21T00:13:53;6.53;;;1.73;;
26163;SDS011;13914;48.178;11.716;2022-09-21T00:16:23;5.75;;;1.08;;
26163;SDS011;13914;48.178;11.716;2022-09-21T00:18:49;4.70;;;1.40;;
26163;SDS011;13914;48.178;11.716;2022-09-21T00:21:16;4.63;;;1.50;;
26163;SDS011;13914;48.178;11.716;2022-09-21T00:23:42;6.47;;;1.45;;
26163;SDS011;13914;48.178;11.716;2022-09-21T00:26:10;9.13;;;1.35;;
26163;SDS011;13914;48.178;11.716;2022-09-21T00:28:52;10.63;;;1.75;;
26163;SDS011;13914;48.178;11.716;2022-09-21T00:31:21;9.88;;;1.55;;
26163;SDS011;13914;48.178;11.716;2022-09-21T00:33:49;6.25;;;1.67;;
26163;SDS011;13914;48.178;11.716;2022-09-21T00:36:17;8.93;;;2.08;;
26163;SDS011;13914;48.178;11.716;2022-09-21T00:38:52;9.63;;;1.48;;
26163;SDS011;13914;48.178;11.716;2022-09-21T00:41:21;3.92;;;1.20;;
26163;SDS011;13914;48.178;11.716;2022-09-21T00:46:41;3.30;;;1.60;;
26163;SDS011;13914;48.178;11.716;2022-09-21T00:49:09;3.38;;;1.10;;
26163;SDS011;13914;48.178;11.716;2022-09-21T00:51:36;3.40;;;1.38;;
26163;SDS011;13914;48.178;11.716;2022-09-21T00:54:06;7.93;;;1.40;;
26163;SDS011;13914;48.178;11.716;2022-09-21T00:56:39;7.13;;;1.20;;
26163;SDS011;13914;48.178;11.716;2022-09-21T00:59:07;8.80;;;1.98;;
26163;SDS011;13914;48.178;11.716;2022-09-21T01:01:34;5.88;;;1.60;;
26163;SDS011;13914;48.178;11.716;2022-09-21T01:04:02;7.13;;;1.38;;
26163;SDS011;13914;48.178;11.716;2022-09-21T01:06:31;8.15;;;1.50;;
26163;SDS011;13914;48.178;11.716;2022-09-21T01:08:59;8.40;;;1.77;;
26163;SDS011;13914;48.178;11.716;2022-09-21T01:15:20;3.78;;;0.98;;
26163;SDS011;13914;48.178;11.716;2022-09-21T01:17:59;7.05;;;1.58;;
26163;SDS011;13914;48.178;11.716;2022-09-21T01:31:38;3.95;;;1.45;;
26163;SDS011;13914;48.178;11.716;2022-09-21T01:34:16;8.55;;;1.33;;
26163;SDS011;13914;48.178;11.716;2022-09-21T01:36:56;17.55;;;1.60;;
26163;SDS011;13914;48.178;11.716;2022-09-21T01:39:29;7.13;;;1.60;;
26163;SDS011;13914;48.178;11.716;2022-09-21T01:41:57;7.95;;;1.35;;
26163;SDS011;13914;48.178;11.716;2022-09-21T01:44:27;6.47;;;1.23;;
26163;SDS011;13914;48.178;11.716;2022-09-21T01:46:58;4.28;;;2.05;;
26163;SDS011;13914;48.178;11.716;2022-09-21T01:49:29;3.75;;;1.52;;
26163;SDS011;13914;48.178;11.716;2022-09-21T01:52:01;12.48;;;1.98;;
26163;SDS011;13914;48.178;11.716;2022-09-21T01:55:00;5.20;;;1.92;;
26163;SDS011;13914;48.178;11.716;2022-09-21T01:57:34;5.38;;;2.15;;
26163;SDS011;13914;48.178;11.716;2022-09-21T02:00:13;7.13;;;2.28;;
26163;SDS011;13914;48.178;11.716;2022-09-21T02:05:14;4.82;;;1.63;;
26163;SDS011;13914;48.178;11.716;2022-09-21T02:07:44;11.60;;;2.25;;
26163;SDS011;13914;48.178;11.716;2022-09-21T02:10:16;8.38;;;2.70;;
26163;SDS011;13914;48.178;11.716;2022-09-21T02:12:54;9.98;;;1.88;;
26163;SDS011;13914;48.178;11.716;2022-09-21T02:15:27;13.13;;;2.15;;
26163;SDS011;13914;48.178;11.716;2022-09-21T02:19:13;7.10;;;1.80;;
26163;SDS011;13914;48.178;11.716;2022-09-21T02:25:08;12.00;;;2.28;;
26163;SDS011;13914;48.178;11.716;2022-09-21T02:27:58;16.17;;;2.15;;
26163;SDS011;13914;48.178;11.716;2022-09-21T02:30:50;8.13;;;2.58;;
26163;SDS011;13914;48.178;11.716;2022-09-21T02:33:37;10.50;;;2.00;;
26163;SDS011;13914;48.178;11.716;2022-09-21T02:36:25;15.18;;;2.58;;
26163;SDS011;13914;48.178;11.716;2022-09-21T02:42:05;8.88;;;2.47;;
26163;SDS011;13914;48.178;11.716;2022-09-21T02:45:27;8.80;;;2.63;;
26163;SDS011;13914;48.178;11.716;2022-09-21T02:48:02;5.75;;;2.72;;
26163;SDS011;13914;48.178;11.716;2022-09-21T02:50:36;18.08;;;2.28;;
26163;SDS011;13914;48.178;11.716;2022-09-21T02:53:14;13.35;;;2.15;;
26163;SDS011;13914;48.178;11.716;2022-09-21T02:55:49;9.57;;;2.08;;
26163;SDS011;13914;48.178;11.716;2022-09-21T02:58:18;7.50;;;2.65;;
26163;SDS011;13914;48.178;11.716;2022-09-21T03:00:48;11.35;;;2.45;;
26163;SDS011;13914;48.178;11.716;2022-09-21T03:03:18;10.98;;;2.10;;
26163;SDS011;13914;48.178;11.716;2022-09-21T03:05:49;9.23;;;2.00;;
26163;SDS011;13914;48.178;11.716;2022-09-21T03:08:18;11.38;;;2.20;;
26163;SDS011;13914;48.178;11.716;2022-09-21T03:10:45;10.63;;;2.13;;
26163;SDS011;13914;48.178;11.716;2022-09-21T03:13:13;8.20;;;2.40;;
26163;SDS011;13914;48.178;11.716;2022-09-21T03:15:39;7.40;;;2.00;;
26163;SDS011;13914;48.178;11.716;2022-09-21T03:18:06;14.10;;;2.78;;
26163;SDS011;13914;48.178;11.716;2022-09-21T03:20:34;9.82;;;2.22;;
26163;SDS011;13914;48.178;11.716;2022-09-21T03:23:03;6.60;;;1.98;;
26163;SDS011;13914;48.178;11.716;2022-09-21T03:25:29;11.68;;;1.85;;
26163;SDS011;13914;48.178;11.716;2022-09-21T03:27:56;10.13;;;2.35;;
26163;SDS011;13914;48.178;11.716;2022-09-21T03:30:22;5.45;;;2.72;;
26163;SDS011;13914;48.178;11.716;2022-09-21T03:32:52;15.45;;;2.30;;
26163;SDS011;13914;48.178;11.716;2022-09-21T03:35:20;12.07;;;2.78;;
26163;SDS011;13914;48.178;11.716;2022-09-21T03:37:50;11.57;;;2.15;;
26163;SDS011;13914;48.178;11.716;2022-09-21T03:40:17;9.75;;;2.35;;
26163;SDS011;13914;48.178;11.716;2022-09-21T03:45:09;10.90;;;2.45;;
26163;SDS011;13914;48.178;11.716;2022-09-21T03:47:36;7.43;;;2.30;;
26163;SDS011;13914;48.178;11.716;2022-09-21T03:50:05;7.80;;;2.25;;
26163;SDS011;13914;48.178;11.716;2022-09-21T03:52:34;14.48;;;2.38;;
26163;SDS011;13914;48.178;11.716;2022-09-21T03:55:01;7.35;;;2.53;;
26163;SDS011;13914;48.178;11.716;2022-09-21T03:57:37;7.05;;;2.55;;
26163;SDS011;13914;48.178;11.716;2022-09-21T04:00:04;8.80;;;2.10;;
26163;SDS011;13914;48.178;11.716;2022-09-21T04:02:35;10.32;;;2.17;;
26163;SDS011;13914;48.178;11.716;2022-09-21T04:05:04;12.18;;;2.38;;
26163;SDS011;13914;48.178;11.716;2022-09-21T04:07:34;6.40;;;2.13;;
26163;SDS011;13914;48.178;11.716;2022-09-21T04:10:04;14.07;;;2.33;;
26163;SDS011;13914;48.178;11.716;2022-09-21T04:12:32;11.80;;;2.03;;
26163;SDS011;13914;48.178;11.716;2022-09-21T04:15:02;11.32;;;2.95;;
26163;SDS011;13914;48.178;11.716;2022-09-21T04:17:31;4.75;;;1.88;;
26163;SDS011;13914;48.178;11.716;2022-09-21T04:19:58;12.13;;;2.42;;
26163;SDS011;13914;48.178;11.716;2022-09-21T04:22:26;14.77;;;2.00;;
26163;SDS011;13914;48.178;11.716;2022-09-21T04:24:51;8.10;;;2.15;;
26163;SDS011;13914;48.178;11.716;2022-09-21T04:27:17;9.52;;;1.95;;
26163;SDS011;13914;48.178;11.716;2022-09-21T04:29:43;9.03;;;2.30;;
26163;SDS011;13914;48.178;11.716;2022-09-21T04:32:09;7.45;;;1.70;;
26163;SDS011;13914;48.178;11.716;2022-09-21T04:34:35;8.73;;;2.47;;
26163;SDS011;13914;48.178;11.716;2022-09-21T04:37:03;7.75;;;2.00;;
26163;SDS011;13914;48.178;11.716;2022-09-21T04:39:32;9.68;;;1.95;;
26163;SDS011;13914;48.178;11.716;2022-09-21T04:41:59;11.45;;;1.98;;
26163;SDS011;13914;48.178;11.716;2022-09-21T04:49:17;6.90;;;1.70;;
26163;SDS011;13914;48.178;11.716;2022-09-21T04:51:43;9.48;;;2.00;;
26163;SDS011;13914;48.178;11.716;2022-09-21T04:54:09;8.10;;;2.60;;
26163;SDS011;13914;48.178;11.716;2022-09-21T04:56:35;7.57;;;2.30;;
26163;SDS011;13914;48.178;11.716;2022-09-21T04:59:01;4.07;;;1.52;;
26163;SDS011;13914;48.178;11.716;2022-09-21T05:01:26;13.90;;;2.30;;
26163;SDS011;13914;48.178;11.716;2022-09-21T05:03:52;8.65;;;2.15;;
26163;SDS011;13914;48.178;11.716;2022-09-21T05:06:18;21.55;;;2.50;;
26163;SDS011;13914;48.178;11.716;2022-09-21T05:08:44;14.68;;;2.42;;
26163;SDS011;13914;48.178;11.716;2022-09-21T05:11:28;6.32;;;1.90;;
26163;SDS011;13914;48.178;11.716;2022-09-21T05:13:54;9.25;;;2.30;;
26163;SDS011;13914;48.178;11.716;2022-09-21T05:16:20;4.53;;;2.13;;
26163;SDS011;13914;48.178;11.716;2022-09-21T05:18:47;7.70;;;2.20;;
26163;SDS011;13914;48.178;11.716;2022-09-21T05:21:13;14.13;;;2.10;;
26163;SDS011;13914;48.178;11.716;2022-09-21T05:26:06;3.65;;;2.22;;
26163;SDS011;13914;48.178;11.716;2022-09-21T05:28:32;8.07;;;2.95;;
26163;SDS011;13914;48.178;11.716;2022-09-21T05:31:01;5.85;;;2.15;;
26163;SDS011;13914;48.178;11.716;2022-09-21T05:33:29;8.43;;;2.35;;
26163;SDS011;13914;48.178;11.716;2022-09-21T05:36:00;14.50;;;3.00;;
26163;SDS011;13914;48.178;11.716;2022-09-21T05:38:35;7.63;;;2.58;;
26163;SDS011;13914;48.178;11.716;2022-09-21T05:41:01;10.32;;;2.78;;
26163;SDS011;13914;48.178;11.716;2022-09-21T05:45:57;7.13;;;2.67;;
26163;SDS011;13914;48.178;11.716;2022-09-21T05:48:41;6.30;;;2.88;;
26163;SDS011;13914;48.178;11.716;2022-09-21T05:51:21;8.57;;;3.05;;
26163;SDS011;13914;48.178;11.716;2022-09-21T05:57:04;10.80;;;3.35;;
26163;SDS011;13914;48.178;11.716;2022-09-21T05:59:53;6.80;;;3.45;;
26163;SDS011;13914;48.178;11.716;2022-09-21T06:05:18;12.90;;;4.13;;
26163;SDS011;13914;48.178;11.716;2022-09-21T06:07:44;15.43;;;3.83;;
26163;SDS011;13914;48.178;11.716;2022-09-21T06:10:11;9.37;;;2.93;;
26163;SDS011;13914;48.178;11.716;2022-09-21T06:12:38;6.97;;;2.72;;
26163;SDS011;13914;48.178;11.716;2022-09-21T06:15:05;6.05;;;2.83;;
26163;SDS011;13914;48.178;11.716;2022-09-21T06:17:36;11.23;;;3.40;;
26163;SDS011;13914;48.178;11.716;2022-09-21T06:22:30;5.45;;;2.53;;
26163;SDS011;13914;48.178;11.716;2022-09-21T06:24:56;9.07;;;2.90;;
26163;SDS011;13914;48.178;11.716;2022-09-21T06:27:21;13.40;;;2.00;;
26163;SDS011;13914;48.178;11.716;2022-09-21T06:29:47;12.23;;;3.10;;
26163;SDS011;13914;48.178;11.716;2022-09-21T06:32:13;7.20;;;2.77;;
26163;SDS011;13914;48.178;11.716;2022-09-21T06:34:39;7.20;;;1.67;;
26163;SDS011;13914;48.178;11.716;2022-09-21T06:37:04;13.95;;;3.33;;
26163;SDS011;13914;48.178;11.716;2022-09-21T06:39:30;7.50;;;2.90;;
26163;SDS011;13914;48.178;11.716;2022-09-21T06:41:57;6.53;;;3.97;;
26163;SDS011;13914;48.178;11.716;2022-09-21T06:44:23;5.43;;;3.08;;
26163;SDS011;13914;48.178;11.716;2022-09-21T06:46:49;7.40;;;2.88;;
26163;SDS011;13914;48.178;11.716;2022-09-21T06:49:15;5.15;;;2.80;;
26163;SDS011;13914;48.178;11.716;2022-09-21T06:51:41;10.73;;;3.80;;
26163;SDS011;13914;48.178;11.716;2022-09-21T06:54:07;8.35;;;2.70;;
26163;SDS011;13914;48.178;11.716;2022-09-21T06:56:33;6.30;;;2.88;;
26163;SDS011;13914;48.178;11.716;2022-09-21T06:58:59;7.70;;;3.70;;
26163;SDS011;13914;48.178;11.716;2022-09-21T07:01:25;10.30;;;3.33;;
26163;SDS011;13914;48.178;11.716;2022-09-21T07:03:51;7.20;;;3.17;;
26163;SDS011;13914;48.178;11.716;2022-09-21T07:11:11;8.02;;;3.05;;
26163;SDS011;13914;48.178;11.716;2022-09-21T07:13:37;14.93;;;4.40;;
26163;SDS011;13914;48.178;11.716;2022-09-21T07:16:04;8.43;;;2.78;;
26163;SDS011;13914;48.178;11.716;2022-09-21T07:18:35;11.05;;;3.42;;
26163;SDS011;13914;48.178;11.716;2022-09-21T07:21:03;5.93;;;2.70;;
26163;SDS011;13914;48.178;11.716;2022-09-21T07:23:31;12.93;;;3.13;;
26163;SDS011;13914;48.178;11.716;2022-09-21T07:26:01;6.90;;;2.72;;
26163;SDS011;13914;48.178;11.716;2022-09-21T07:28:30;5.68;;;2.95;;
26163;SDS011;13914;48.178;11.716;2022-09-21T07:30:56;7.03;;;3.38;;
26163;SDS011;13914;48.178;11.716;2022-09-21T07:33:23;8.57;;;3.03;;
26163;SDS011;13914;48.178;11.716;2022-09-21T07:35:53;8.30;;;3.38;;
26163;SDS011;13914;48.178;11.716;2022-09-21T07:38:22;5.65;;;2.40;;
26163;SDS011;13914;48.178;11.716;2022-09-21T07:40:48;7.80;;;2.40;;
26163;SDS011;13914;48.178;11.716;2022-09-21T07:43:14;5.32;;;2.45;;
26163;SDS011;13914;48.178;11.716;2022-09-21T07:45:42;4.97;;;2.30;;
26163;SDS011;13914;48.178;11.716;2022-09-21T07:48:08;5.07;;;2.35;;
26163;SDS011;13914;48.178;11.716;2022-09-21T07:50:34;4.38;;;2.08;;
26163;SDS011;13914;48.178;11.716;2022-09-21T07:53:00;3.55;;;2.45;;
26163;SDS011;13914;48.178;11.716;2022-09-21T07:55:28;6.00;;;2.55;;
26163;SDS011;13914;48.178;11.716;2022-09-21T07:57:54;5.68;;;3.00;;
26163;SDS011;13914;48.178;11.716;2022-09-21T08:00:40;5.80;;;2.60;;
26163;SDS011;13914;48.178;11.716;2022-09-21T08:03:06;7.82;;;3.05;;
26163;SDS011;13914;48.178;11.716;2022-09-21T08:05:32;6.57;;;2.80;;
26163;SDS011;13914;48.178;11.716;2022-09-21T08:07:58;6.10;;;2.13;;
26163;SDS011;13914;48.178;11.716;2022-09-21T08:10:24;5.18;;;2.50;;
26163;SDS011;13914;48.178;11.716;2022-09-21T08:12:52;6.30;;;2.42;;
26163;SDS011;13914;48.178;11.716;2022-09-21T08:15:19;5.85;;;2.20;;
26163;SDS011;13914;48.178;11.716;2022-09-21T08:17:45;7.95;;;2.38;;
26163;SDS011;13914;48.178;11.716;2022-09-21T08:20:10;6.93;;;2.00;;
26163;SDS011;13914;48.178;11.716;2022-09-21T08:22:37;4.32;;;1.98;;
26163;SDS011;13914;48.178;11.716;2022-09-21T08:25:04;4.20;;;2.22;;
26163;SDS011;13914;48.178;11.716;2022-09-21T08:27:30;8.63;;;2.22;;
26163;SDS011;13914;48.178;11.716;2022-09-21T08:29:56;6.60;;;1.97;;
26163;SDS011;13914;48.178;11.716;2022-09-21T08:32:22;3.80;;;2.10;;
26163;SDS011;13914;48.178;11.716;2022-09-21T08:34:48;4.03;;;2.25;;
26163;SDS011;13914;48.178;11.716;2022-09-21T08:37:14;3.42;;;2.13;;
26163;SDS011;13914;48.178;11.716;2022-09-21T08:39:40;4.28;;;2.22;;
26163;SDS011;13914;48.178;11.716;2022-09-21T08:44:36;5.03;;;1.67;;
26163;SDS011;13914;48.178;11.716;2022-09-21T08:47:19;5.22;;;2.08;;
26163;SDS011;13914;48.178;11.716;2022-09-21T08:49:53;4.20;;;1.30;;
26163;SDS011;13914;48.178;11.716;2022-09-21T08:52:22;14.32;;;1.52;;
26163;SDS011;13914;48.178;11.716;2022-09-21T08:57:16;4.17;;;1.10;;
26163;SDS011;13914;48.178;11.716;2022-09-21T08:59:43;5.32;;;1.73;;
26163;SDS011;13914;48.178;11.716;2022-09-21T09:10:42;3.72;;;1.48;;
26163;SDS011;13914;48.178;11.716;2022-09-21T09:22:29;2.70;;;0.85;;
26163;SDS011;13914;48.178;11.716;2022-09-21T09:25:03;3.45;;;1.13;;
26163;SDS011;13914;48.178;11.716;2022-09-21T09:27:41;2.17;;;1.10;;
26163;SDS011;13914;48.178;11.716;2022-09-21T09:30:15;2.17;;;0.80;;
26163;SDS011;13914;48.178;11.716;2022-09-21T09:38:23;2.08;;;0.80;;
26163;SDS011;13914;48.178;11.716;2022-09-21T09:43:40;2.88;;;0.93;;
26163;SDS011;13914;48.178;11.716;2022-09-21T09:46:37;1.75;;;1.00;;
26163;SDS011;13914;48.178;11.716;2022-09-21T09:52:11;1.55;;;0.65;;
26163;SDS011;13914;48.178;11.716;2022-09-21T09:54:40;6.88;;;1.25;;
26163;SDS011;13914;48.178;11.716;2022-09-21T09:57:06;2.17;;;0.93;;
26163;SDS011;13914;48.178;11.716;2022-09-21T09:59:53;2.15;;;0.80;;
26163;SDS011;13914;48.178;11.716;2022-09-21T10:02:24;2.60;;;0.98;;
26163;SDS011;13914;48.178;11.716;2022-09-21T10:10:20;2.28;;;0.77;;
26163;SDS011;13914;48.178;11.716;2022-09-21T10:15:59;2.70;;;0.85;;
26163;SDS011;13914;48.178;11.716;2022-09-21T10:21:08;1.30;;;0.70;;
26163;SDS011;13914;48.178;11.716;2022-09-21T10:23:49;4.57;;;0.68;;
26163;SDS011;13914;48.178;11.716;2022-09-21T10:26:23;2.13;;;0.65;;
26163;SDS011;13914;48.178;11.716;2022-09-21T10:29:15;1.27;;;0.55;;
26163;SDS011;13914;48.178;11.716;2022-09-21T10:34:37;2.40;;;0.60;;
26163;SDS011;13914;48.178;11.716;2022-09-21T10:37:24;1.55;;;0.57;;
26163;SDS011;13914;48.178;11.716;2022-09-21T10:39:59;2.85;;;0.50;;
26163;SDS011;13914;48.178;11.716;2022-09-21T10:42:25;1.20;;;0.40;;
26163;SDS011;13914;48.178;11.716;2022-09-21T10:55:37;2.63;;;0.60;;
26163;SDS011;13914;48.178;11.716;2022-09-21T10:58:10;2.42;;;0.40;;
26163;SDS011;13914;48.178;11.716;2022-09-21T11:00:46;1.05;;;0.50;;
26163;SDS011;13914;48.178;11.716;2022-09-21T11:06:08;1.45;;;0.50;;
26163;SDS011;13914;48.178;11.716;2022-09-21T11:08:49;2.13;;;0.50;;
26163;SDS011;13914;48.178;11.716;2022-09-21T11:14:02;1.48;;;0.45;;
26163;SDS011;13914;48.178;11.716;2022-09-21T11:23:04;0.80;;;0.40;;
26163;SDS011;13914;48.178;11.716;2022-09-21T11:25:55;2.17;;;0.60;;
26163;SDS011;13914;48.178;11.716;2022-09-21T11:37:29;1.48;;;0.30;;
26163;SDS011;13914;48.178;11.716;2022-09-21T11:43:22;0.98;;;0.25;;
26163;SDS011;13914;48.178;11.716;2022-09-21T11:46:10;1.08;;;0.35;;
26163;SDS011;13914;48.178;11.716;2022-09-21T11:52:09;2.53;;;0.40;;
26163;SDS011;13914;48.178;11.716;2022-09-21T12:00:46;2.03;;;0.40;;
26163;SDS011;13914;48.178;11.716;2022-09-21T12:15:41;1.48;;;0.38;;
26163;SDS011;13914;48.178;11.716;2022-09-21T12:18:28;1.73;;;0.45;;
26163;SDS011;13914;48.178;11.716;2022-09-21T12:21:10;1.40;;;0.30;;
26163;SDS011;13914;48.178;11.716;2022-09-21T12:26:47;0.80;;;0.40;;
26163;SDS011;13914;48.178;11.716;2022-09-21T12:32:13;1.10;;;0.40;;
26163;SDS011;13914;48.178;11.716;2022-09-21T12:34:50;1.65;;;0.40;;
26163;SDS011;13914;48.178;11.716;2022-09-21T12:40:06;1.23;;;0.40;;
26163;SDS011;13914;48.178;11.716;2022-09-21T12:42:56;3.00;;;0.75;;
26163;SDS011;13914;48.178;11.716;2022-09-21T12:45:39;2.65;;;0.70;;
26163;SDS011;13914;48.178;11.716;2022-09-21T12:51:02;0.47;;;0.32;;
26163;SDS011;13914;48.178;11.716;2022-09-21T12:53:52;0.98;;;0.40;;
26163;SDS011;13914;48.178;11.716;2022-09-21T13:02:38;0.75;;;0.30;;
26163;SDS011;13914;48.178;11.716;2022-09-21T13:05:12;2.60;;;0.55;;
26163;SDS011;13914;48.178;11.716;2022-09-21T13:07:59;1.75;;;0.40;;
26163;SDS011;13914;48.178;11.716;2022-09-21T13:10:40;0.40;;;0.25;;
26163;SDS011;13914;48.178;11.716;2022-09-21T13:19:02;1.15;;;0.30;;
26163;SDS011;13914;48.178;11.716;2022-09-21T13:21:42;1.52;;;0.32;;
26163;SDS011;13914;48.178;11.716;2022-09-21T13:24:24;0.57;;;0.30;;
26163;SDS011;13914;48.178;11.716;2022-09-21T13:26:54;1.80;;;0.30;;
26163;SDS011;13914;48.178;11.716;2022-09-21T13:29:29;2.22;;;0.50;;
26163;SDS011;13914;48.178;11.716;2022-09-21T13:32:01;1.17;;;0.40;;
26163;SDS011;13914;48.178;11.716;2022-09-21T13:34:45;0.70;;;0.28;;
26163;SDS011;13914;48.178;11.716;2022-09-21T13:45:00;0.55;;;0.30;;
26163;SDS011;13914;48.178;11.716;2022-09-21T13:47:48;1.27;;;0.40;;
26163;SDS011;13914;48.178;11.716;2022-09-21T13:50:28;0.57;;;0.30;;
26163;SDS011;13914;48.178;11.716;2022-09-21T13:53:24;1.05;;;0.35;;
26163;SDS011;13914;48.178;11.716;2022-09-21T13:56:14;1.63;;;0.35;;
26163;SDS011;13914;48.178;11.716;2022-09-21T13:58:45;2.08;;;0.40;;
26163;SDS011;13914;48.178;11.716;2022-09-21T14:01:20;1.38;;;0.30;;
26163;SDS011;13914;48.178;11.716;2022-09-21T14:03:53;1.30;;;0.30;;
26163;SDS011;13914;48.178;11.716;2022-09-21T14:06:34;1.55;;;0.55;;
26163;SDS011;13914;48.178;11.716;2022-09-21T14:09:27;1.20;;;0.40;;
26163;SDS011;13914;48.178;11.716;2022-09-21T14:11:57;1.88;;;0.52;;
26163;SDS011;13914;48.178;11.716;2022-09-21T14:14:27;2.92;;;0.40;;
26163;SDS011;13914;48.178;11.716;2022-09-21T14:17:03;1.73;;;0.55;;
26163;SDS011;13914;48.178;11.716;2022-09-21T14:19:59;0.40;;;0.25;;
26163;SDS011;13914;48.178;11.716;2022-09-21T14:25:21;1.05;;;0.20;;
26163;SDS011;13914;48.178;11.716;2022-09-21T14:27:53;0.45;;;0.20;;
26163;SDS011;13914;48.178;11.716;2022-09-21T14:30:31;1.13;;;0.43;;
26163;SDS011;13914;48.178;11.716;2022-09-21T14:35:46;0.20;;;0.10;;
26163;SDS011;13914;48.178;11.716;2022-09-21T14:38:47;1.23;;;0.50;;
26163;SDS011;13914;48.178;11.716;2022-09-21T14:41:14;2.08;;;0.30;;
26163;SDS011;13914;48.178;11.716;2022-09-21T14:43:47;0.82;;;0.32;;
26163;SDS011;13914;48.178;11.716;2022-09-21T14:52:21;2.00;;;0.33;;
26163;SDS011;13914;48.178;11.716;2022-09-21T15:15:34;0.95;;;0.43;;
26163;SDS011;13914;48.178;11.716;2022-09-21T15:18:31;2.15;;;0.30;;
26163;SDS011;13914;48.178;11.716;2022-09-21T15:21:03;1.85;;;0.60;;
26163;SDS011;13914;48.178;11.716;2022-09-21T15:23:33;1.08;;;0.40;;
26163;SDS011;13914;48.178;11.716;2022-09-21T15:26:08;0.40;;;0.30;;
26163;SDS011;13914;48.178;11.716;2022-09-21T15:28:47;1.08;;;0.30;;
26163;SDS011;13914;48.178;11.716;2022-09-21T15:31:18;1.52;;;0.47;;
26163;SDS011;13914;48.178;11.716;2022-09-21T15:33:44;1.52;;;0.50;;
26163;SDS011;13914;48.178;11.716;2022-09-21T15:36:22;1.30;;;0.43;;
26163;SDS011;13914;48.178;11.716;2022-09-21T15:38:51;0.52;;;0.35;;
26163;SDS011;13914;48.178;11.716;2022-09-21T15:41:40;3.17;;;0.70;;
26163;SDS011;13914;48.178;11.716;2022-09-21T15:46:49;1.80;;;0.55;;
26163;SDS011;13914;48.178;11.716;2022-09-21T15:49:21;1.40;;;0.63;;
26163;SDS011;13914;48.178;11.716;2022-09-21T15:51:54;1.27;;;0.40;;
26163;SDS011;13914;48.178;11.716;2022-09-21T15:54:44;3.72;;;0.68;;
26163;SDS011;13914;48.178;11.716;2022-09-21T15:57:35;1.40;;;0.52;;
26163;SDS011;13914;48.178;11.716;2022-09-21T16:00:50;1.40;;;0.57;;
26163;SDS011;13914;48.178;11.716;2022-09-21T16:03:00;3.25;;;0.57;;
26163;SDS011;13914;48.178;11.716;2022-09-21T16:05:32;4.20;;;0.68;;
26163;SDS011;13914;48.178;11.716;2022-09-21T16:11:09;1.40;;;0.50;;
26163;SDS011;13914;48.178;11.716;2022-09-21T16:13:59;1.27;;;0.60;;
26163;SDS011;13914;48.178;11.716;2022-09-21T16:24:54;1.60;;;0.70;;
26163;SDS011;13914;48.178;11.716;2022-09-21T16:27:24;1.20;;;0.63;;
26163;SDS011;13914;48.178;11.716;2022-09-21T16:29:54;1.33;;;0.80;;
26163;SDS011;13914;48.178;11.716;2022-09-21T16:32:29;1.17;;;0.50;;
26163;SDS011;13914;48.178;11.716;2022-09-21T16:38:06;1.67;;;0.70;;
26163;SDS011;13914;48.178;11.716;2022-09-21T16:40:40;2.72;;;0.50;;
26163;SDS011;13914;48.178;11.716;2022-09-21T16:43:07;1.00;;;0.60;;
26163;SDS011;13914;48.178;11.716;2022-09-21T16:45:49;1.45;;;0.57;;
26163;SDS011;13914;48.178;11.716;2022-09-21T16:48:15;1.42;;;0.70;;
26163;SDS011;13914;48.178;11.716;2022-09-21T16:50:40;0.70;;;0.40;;
26163;SDS011;13914;48.178;11.716;2022-09-21T16:53:10;1.83;;;0.70;;
26163;SDS011;13914;48.178;11.716;2022-09-21T16:55:40;1.08;;;0.40;;
26163;SDS011;13914;48.178;11.716;2022-09-21T16:58:07;1.33;;;0.70;;
26163;SDS011;13914;48.178;11.716;2022-09-21T17:00:38;2.22;;;0.70;;
26163;SDS011;13914;48.178;11.716;2022-09-21T17:03:05;2.58;;;0.75;;
26163;SDS011;13914;48.178;11.716;2022-09-21T17:05:36;2.72;;;0.77;;
26163;SDS011;13914;48.178;11.716;2022-09-21T17:08:04;3.65;;;0.90;;
26163;SDS011;13914;48.178;11.716;2022-09-21T17:10:31;1.65;;;0.73;;
26163;SDS011;13914;48.178;11.716;2022-09-21T17:13:04;1.27;;;0.70;;
26163;SDS011;13914;48.178;11.716;2022-09-21T17:17:57;3.33;;;0.93;;
26163;SDS011;13914;48.178;11.716;2022-09-21T17:23:04;2.13;;;1.15;;
26163;SDS011;13914;48.178;11.716;2022-09-21T17:25:32;1.48;;;0.98;;
26163;SDS011;13914;48.178;11.716;2022-09-21T17:28:00;2.78;;;0.60;;
26163;SDS011;13914;48.178;11.716;2022-09-21T17:30:28;3.30;;;0.73;;
26163;SDS011;13914;48.178;11.716;2022-09-21T17:32:54;2.20;;;1.05;;
26163;SDS011;13914;48.178;11.716;2022-09-21T17:35:31;1.98;;;0.80;;
26163;SDS011;13914;48.178;11.716;2022-09-21T17:38:05;2.65;;;0.90;;
26163;SDS011;13914;48.178;11.716;2022-09-21T17:40:34;2.75;;;0.95;;
26163;SDS011;13914;48.178;11.716;2022-09-21T17:43:03;3.17;;;0.80;;
26163;SDS011;13914;48.178;11.716;2022-09-21T17:46:19;1.75;;;0.80;;
26163;SDS011;13914;48.178;11.716;2022-09-21T17:49:02;1.67;;;0.80;;
26163;SDS011;13914;48.178;11.716;2022-09-21T17:51:29;4.43;;;0.88;;
26163;SDS011;13914;48.178;11.716;2022-09-21T17:54:14;3.58;;;1.00;;
26163;SDS011;13914;48.178;11.716;2022-09-21T17:59:26;3.13;;;0.82;;
26163;SDS011;13914;48.178;11.716;2022-09-21T18:02:00;2.20;;;1.23;;
26163;SDS011;13914;48.178;11.716;2022-09-21T18:06:57;3.08;;;1.05;;
26163;SDS011;13914;48.178;11.716;2022-09-21T18:09:23;6.20;;;1.65;;
26163;SDS011;13914;48.178;11.716;2022-09-21T18:11:56;4.63;;;1.55;;
26163;SDS011;13914;48.178;11.716;2022-09-21T18:14:48;2.92;;;1.35;;
26163;SDS011;13914;48.178;11.716;2022-09-21T18:17:51;5.75;;;1.52;;
26163;SDS011;13914;48.178;11.716;2022-09-21T18:26:25;3.72;;;1.15;;
26163;SDS011;13914;48.178;11.716;2022-09-21T18:28:52;1.70;;;0.88;;
26163;SDS011;13914;48.178;11.716;2022-09-21T18:31:36;4.82;;;0.95;;
26163;SDS011;13914;48.178;11.716;2022-09-21T18:34:44;4.15;;;1.10;;
26163;SDS011;13914;48.178;11.716;2022-09-21T18:41:13;3.55;;;1.20;;
26163;SDS011;13914;48.178;11.716;2022-09-21T18:46:52;7.65;;;1.50;;
26163;SDS011;13914;48.178;11.716;2022-09-21T18:55:27;4.88;;;1.35;;
26163;SDS011;13914;48.178;11.716;2022-09-21T18:57:57;4.13;;;1.35;;
26163;SDS011;13914;48.178;11.716;2022-09-21T19:00:25;6.00;;;1.60;;
26163;SDS011;13914;48.178;11.716;2022-09-21T19:03:03;3.50;;;1.52;;
26163;SDS011;13914;48.178;11.716;2022-09-21T19:05:32;3.55;;;1.60;;
26163;SDS011;13914;48.178;11.716;2022-09-21T19:11:25;6.78;;;1.77;;
26163;SDS011;13914;48.178;11.716;2022-09-21T19:14:07;8.85;;;1.73;;
26163;SDS011;13914;48.178;11.716;2022-09-21T19:16:50;2.92;;;1.63;;
26163;SDS011;13914;48.178;11.716;2022-09-21T19:20:02;7.07;;;2.00;;
26163;SDS011;13914;48.178;11.716;2022-09-21T19:29:16;8.75;;;2.17;;
26163;SDS011;13914;48.178;11.716;2022-09-21T19:31:56;6.50;;;2.28;;
26163;SDS011;13914;48.178;11.716;2022-09-21T19:34:23;4.70;;;1.65;;
26163;SDS011;13914;48.178;11.716;2022-09-21T19:36:51;6.43;;;1.83;;
26163;SDS011;13914;48.178;11.716;2022-09-21T19:39:17;5.35;;;1.90;;
26163;SDS011;13914;48.178;11.716;2022-09-21T19:44:33;5.80;;;2.10;;
26163;SDS011;13914;48.178;11.716;2022-09-21T19:50:15;8.48;;;1.98;;